Hovedside
METAR-TAF:

METAR-TAF

Lufthavner :

Dusjanbe, Tadsjikistan

breddegrad: 38-33N, lengdegrad: 068-47E, høyde over havet: 803 m

Gjeldene værobservasjon

Denne rapporten ble laget for 16 minutter siden, klokken 22:00 UTC
Vind 2 kt fra Øst
Temperatur 22°C
Luftfuktighet 41%
Trykk 1005 hPa
Sikt 10 km eller mer

METAR: UTDD 142200Z 09001MPS 9999 NSC 22/08 Q1005 R09/CLRD// NOSIG RMK QFE686/0915

Tid: 03:16 (22:16 UTC)

Varsel

Denne rapporten ble laget for 1 time og 16 minutter siden, klokken 21:00 UTC
Varsel gyldig fra 14. klokken 22 UTC til 15. klokken 10 UTC
Vind 4 kt fra skiftende retning
Sikt: 6000 m
Få skyer i en høyde av 6000 ft
Spredte skyer i en høyde av 10000 ft

TAF: UTDD 142100Z 1422/1510 VRB02MPS 6000 FEW060 SCT100

Værobservasjoner og værvarsel for over 4000 flyplasser (METAR- og TAF-rapporter).

Tilgjengelige stasjoner er representert av de røde og gule prikkene på kartet.

Hold musepekeren over prikken for å se navnet på stasjonen.

Klikk så for å se værobservasjoner og -varsler.

For å forandre kartet kan du klikke på den grønne knappen med svart kryss for å zoome inn, på den grønne knappen med strek for å zoome ut, eller på de grønne pilene for å se tilstøtende kart.


METAR-TAF: